Impacts TAF Board INFO
FOR SITUATIONAL AWARENESS. NOT TO BE USED FOR FLIGHT PLANNING PURPOSES.
IDs:

KBWI - Baltimore-Washington, MD, US

Issued at 1135 UTC 18 Jan 2018
Updated at 1343 UTC 18 Jan 2018
Potential Impact None Slight Moderate High
Time<<19/14Z 19/15Z 19/16Z 19/17Z 19/18Z 19/19Z 19/20Z 19/21Z 19/22Z 19/23Z 20/00Z 20/01Z 20/02Z
Type PRVL PRVL PRVL PRVL
VIS >6 >6 >6 >6
CIG -- -- -- --
Cover SKC SKC FEW FEW
FltCat VFR VFR VFR VFR
WX -- -- -- --
WDir 300 300 260 260
WSpd 4 4 8 8
WGst -- -- -- --

Raw TAF
KBWI 181135Z 1812/1918 VRB03KT P6SM FEW130
  FM181500 30012G20KT P6SM FEW150
  FM182300 30008KT P6SM SKC
  FM190200 30004KT P6SM SKC
  FM191600 26008KT P6SM FEW200


METAR Board
Radar Display
Forecast Discussion

FOR SITUATIONAL AWARENESS. NOT TO BE USED FOR FLIGHT PLANNING PURPOSES.